sensor_id;sensor_type;location;lat;lon;timestamp;pressure;altitude;pressure_sealevel;temperature;humidity
71917;BME280;59793;46.506;6.674;2023-05-13T00:00:02;96818.50;;;14.18;65.51
71917;BME280;59793;46.506;6.674;2023-05-13T00:02:27;96819.25;;;14.19;65.68
71917;BME280;59793;46.506;6.674;2023-05-13T00:04:52;96821.22;;;14.32;65.02
71917;BME280;59793;46.506;6.674;2023-05-13T00:07:17;96824.31;;;14.42;64.68
71917;BME280;59793;46.506;6.674;2023-05-13T00:09:42;96822.75;;;14.37;65.02
71917;BME280;59793;46.506;6.674;2023-05-13T00:12:08;96826.13;;;14.30;65.32
71917;BME280;59793;46.506;6.674;2023-05-13T00:14:33;96820.06;;;14.26;65.51
71917;BME280;59793;46.506;6.674;2023-05-13T00:16:58;96824.66;;;14.37;65.32
71917;BME280;59793;46.506;6.674;2023-05-13T00:19:26;96822.81;;;14.48;65.07
71917;BME280;59793;46.506;6.674;2023-05-13T00:21:51;96820.50;;;14.39;65.24
71917;BME280;59793;46.506;6.674;2023-05-13T00:24:16;96824.31;;;14.42;65.09
71917;BME280;59793;46.506;6.674;2023-05-13T00:26:41;96833.03;;;14.46;65.09
71917;BME280;59793;46.506;6.674;2023-05-13T00:29:07;96832.28;;;14.45;65.13
71917;BME280;59793;46.506;6.674;2023-05-13T00:31:32;96839.47;;;14.48;65.14
71917;BME280;59793;46.506;6.674;2023-05-13T00:33:57;96842.47;;;14.40;65.17
71917;BME280;59793;46.506;6.674;2023-05-13T00:36:22;96843.63;;;14.39;65.40
71917;BME280;59793;46.506;6.674;2023-05-13T00:38:48;96842.75;;;14.27;65.66
71917;BME280;59793;46.506;6.674;2023-05-13T00:41:13;96840.47;;;14.22;65.72
71917;BME280;59793;46.506;6.674;2023-05-13T00:43:39;96843.53;;;14.24;66.04
71917;BME280;59793;46.506;6.674;2023-05-13T00:46:04;96845.06;;;14.29;65.81
71917;BME280;59793;46.506;6.674;2023-05-13T00:48:30;96846.56;;;14.26;66.25
71917;BME280;59793;46.506;6.674;2023-05-13T00:50:56;96844.69;;;14.30;65.94
71917;BME280;59793;46.506;6.674;2023-05-13T00:53:21;96847.25;;;14.16;66.34
71917;BME280;59793;46.506;6.674;2023-05-13T00:55:46;96858.56;;;14.13;66.64
71917;BME280;59793;46.506;6.674;2023-05-13T00:58:12;96855.09;;;14.02;67.64
71917;BME280;59793;46.506;6.674;2023-05-13T01:00:45;96853.13;;;13.92;67.74
71917;BME280;59793;46.506;6.674;2023-05-13T01:03:13;96864.34;;;13.78;68.62
71917;BME280;59793;46.506;6.674;2023-05-13T01:08:18;96856.88;;;13.87;68.52
71917;BME280;59793;46.506;6.674;2023-05-13T01:10:53;96864.72;;;13.76;68.99
71917;BME280;59793;46.506;6.674;2023-05-13T01:13:21;96864.22;;;13.63;69.44
71917;BME280;59793;46.506;6.674;2023-05-13T01:16:06;96865.66;;;13.54;69.97
71917;BME280;59793;46.506;6.674;2023-05-13T01:18:36;96863.66;;;13.40;70.34
71917;BME280;59793;46.506;6.674;2023-05-13T01:21:04;96866.25;;;13.36;71.16
71917;BME280;59793;46.506;6.674;2023-05-13T01:23:30;96868.09;;;13.32;71.31
71917;BME280;59793;46.506;6.674;2023-05-13T01:25:55;96869.97;;;13.32;71.07
71917;BME280;59793;46.506;6.674;2023-05-13T01:28:20;96870.38;;;13.34;71.03
71917;BME280;59793;46.506;6.674;2023-05-13T01:30:46;96871.53;;;13.36;71.52
71917;BME280;59793;46.506;6.674;2023-05-13T01:33:12;96873.81;;;13.38;71.04
71917;BME280;59793;46.506;6.674;2023-05-13T01:35:38;96872.31;;;13.37;71.21
71917;BME280;59793;46.506;6.674;2023-05-13T01:38:03;96867.47;;;13.46;70.75
71917;BME280;59793;46.506;6.674;2023-05-13T01:40:29;96875.38;;;13.43;70.92
71917;BME280;59793;46.506;6.674;2023-05-13T01:42:55;96873.84;;;13.42;70.89
71917;BME280;59793;46.506;6.674;2023-05-13T01:45:20;96859.41;;;13.35;71.10
71917;BME280;59793;46.506;6.674;2023-05-13T01:47:45;96868.41;;;13.27;71.43
71917;BME280;59793;46.506;6.674;2023-05-13T01:50:11;96868.84;;;13.29;71.22
71917;BME280;59793;46.506;6.674;2023-05-13T01:52:36;96871.69;;;13.17;71.81
71917;BME280;59793;46.506;6.674;2023-05-13T01:55:01;96871.59;;;13.10;72.19
71917;BME280;59793;46.506;6.674;2023-05-13T01:57:27;96868.66;;;13.15;72.06
71917;BME280;59793;46.506;6.674;2023-05-13T01:59:52;96874.31;;;13.17;71.37
71917;BME280;59793;46.506;6.674;2023-05-13T02:02:17;96876.59;;;13.15;71.80
71917;BME280;59793;46.506;6.674;2023-05-13T02:04:43;96886.84;;;13.20;71.80
71917;BME280;59793;46.506;6.674;2023-05-13T02:07:08;96885.06;;;13.28;71.12
71917;BME280;59793;46.506;6.674;2023-05-13T02:09:33;96895.38;;;13.36;70.69
71917;BME280;59793;46.506;6.674;2023-05-13T02:11:58;96898.72;;;13.33;71.22
71917;BME280;59793;46.506;6.674;2023-05-13T02:14:24;96902.53;;;13.36;71.02
71917;BME280;59793;46.506;6.674;2023-05-13T02:16:50;96905.56;;;13.38;70.78
71917;BME280;59793;46.506;6.674;2023-05-13T02:19:15;96901.03;;;13.38;70.99
71917;BME280;59793;46.506;6.674;2023-05-13T02:21:40;96901.41;;;13.37;70.66
71917;BME280;59793;46.506;6.674;2023-05-13T02:24:07;96899.22;;;13.46;70.38
71917;BME280;59793;46.506;6.674;2023-05-13T02:26:32;96906.41;;;13.46;70.32
71917;BME280;59793;46.506;6.674;2023-05-13T02:28:58;96903.53;;;13.58;69.92
71917;BME280;59793;46.506;6.674;2023-05-13T02:31:23;96895.97;;;13.60;69.55
71917;BME280;59793;46.506;6.674;2023-05-13T02:33:48;96901.28;;;13.63;69.55
71917;BME280;59793;46.506;6.674;2023-05-13T02:36:13;96897.94;;;13.70;69.35
71917;BME280;59793;46.506;6.674;2023-05-13T02:38:38;96904.38;;;13.69;69.33
71917;BME280;59793;46.506;6.674;2023-05-13T02:41:04;96910.47;;;13.73;69.05
71917;BME280;59793;46.506;6.674;2023-05-13T02:43:29;96903.97;;;13.67;69.18
71917;BME280;59793;46.506;6.674;2023-05-13T02:45:55;96906.91;;;13.58;69.38
71917;BME280;59793;46.506;6.674;2023-05-13T02:48:20;96902.78;;;13.61;69.49
71917;BME280;59793;46.506;6.674;2023-05-13T02:50:45;96899.59;;;13.45;69.88
71917;BME280;59793;46.506;6.674;2023-05-13T02:53:11;96905.53;;;13.34;70.48
71917;BME280;59793;46.506;6.674;2023-05-13T02:55:36;96910.16;;;13.41;70.52
71917;BME280;59793;46.506;6.674;2023-05-13T02:58:01;96901.84;;;13.43;70.61
71917;BME280;59793;46.506;6.674;2023-05-13T03:00:26;96909.28;;;13.30;71.19
71917;BME280;59793;46.506;6.674;2023-05-13T03:02:52;96910.06;;;13.34;70.75
71917;BME280;59793;46.506;6.674;2023-05-13T03:05:17;96915.41;;;13.37;70.77
71917;BME280;59793;46.506;6.674;2023-05-13T03:07:42;96913.50;;;13.38;71.19
71917;BME280;59793;46.506;6.674;2023-05-13T03:10:08;96905.47;;;13.27;71.81
71917;BME280;59793;46.506;6.674;2023-05-13T03:12:33;96908.50;;;13.29;71.32
71917;BME280;59793;46.506;6.674;2023-05-13T03:14:59;96906.28;;;13.35;71.37
71917;BME280;59793;46.506;6.674;2023-05-13T03:17:24;96915.28;;;13.27;71.74
71917;BME280;59793;46.506;6.674;2023-05-13T03:19:50;96916.75;;;13.24;72.07
71917;BME280;59793;46.506;6.674;2023-05-13T03:22:15;96915.94;;;13.20;72.00
71917;BME280;59793;46.506;6.674;2023-05-13T03:24:40;96914.34;;;13.12;72.40
71917;BME280;59793;46.506;6.674;2023-05-13T03:27:07;96914.41;;;13.19;71.98
71917;BME280;59793;46.506;6.674;2023-05-13T03:29:32;96920.16;;;13.25;71.80
71917;BME280;59793;46.506;6.674;2023-05-13T03:31:57;96927.34;;;13.24;72.01
71917;BME280;59793;46.506;6.674;2023-05-13T03:34:22;96929.03;;;13.39;71.44
71917;BME280;59793;46.506;6.674;2023-05-13T03:36:48;96938.13;;;13.42;71.03
71917;BME280;59793;46.506;6.674;2023-05-13T03:39:13;96936.72;;;13.52;70.87
71917;BME280;59793;46.506;6.674;2023-05-13T03:41:38;96941.34;;;13.58;70.62
71917;BME280;59793;46.506;6.674;2023-05-13T03:44:03;96938.31;;;13.60;70.18
71917;BME280;59793;46.506;6.674;2023-05-13T03:46:29;96944.34;;;13.57;70.47
71917;BME280;59793;46.506;6.674;2023-05-13T03:48:54;96946.97;;;13.53;70.63
71917;BME280;59793;46.506;6.674;2023-05-13T03:51:20;96948.16;;;13.59;70.74
71917;BME280;59793;46.506;6.674;2023-05-13T03:53:45;96948.09;;;13.56;70.75
71917;BME280;59793;46.506;6.674;2023-05-13T03:56:10;96947.72;;;13.54;70.83
71917;BME280;59793;46.506;6.674;2023-05-13T03:58:36;96943.88;;;13.48;71.40
71917;BME280;59793;46.506;6.674;2023-05-13T04:01:01;96953.31;;;13.49;71.39
71917;BME280;59793;46.506;6.674;2023-05-13T04:03:26;96947.78;;;13.61;70.59
71917;BME280;59793;46.506;6.674;2023-05-13T04:05:51;96951.53;;;13.60;71.02
71917;BME280;59793;46.506;6.674;2023-05-13T04:08:17;96951.97;;;13.62;71.18
71917;BME280;59793;46.506;6.674;2023-05-13T04:10:42;96958.78;;;13.63;71.13
71917;BME280;59793;46.506;6.674;2023-05-13T04:13:08;96957.69;;;13.68;70.91
71917;BME280;59793;46.506;6.674;2023-05-13T04:15:33;96962.00;;;13.83;70.38
71917;BME280;59793;46.506;6.674;2023-05-13T04:17:58;96966.28;;;13.95;69.77
71917;BME280;59793;46.506;6.674;2023-05-13T04:20:23;96960.16;;;13.87;70.04
71917;BME280;59793;46.506;6.674;2023-05-13T04:22:49;96958.56;;;13.79;70.25
71917;BME280;59793;46.506;6.674;2023-05-13T04:25:14;96969.84;;;13.72;70.78
71917;BME280;59793;46.506;6.674;2023-05-13T04:27:40;96958.03;;;13.66;70.96
71917;BME280;59793;46.506;6.674;2023-05-13T04:30:05;96959.09;;;13.58;71.51
71917;BME280;59793;46.506;6.674;2023-05-13T04:32:31;96965.31;;;13.39;72.55
71917;BME280;59793;46.506;6.674;2023-05-13T04:34:56;96968.38;;;13.41;72.47
71917;BME280;59793;46.506;6.674;2023-05-13T04:37:21;96970.50;;;13.32;72.57
71917;BME280;59793;46.506;6.674;2023-05-13T04:39:47;96971.47;;;13.20;73.36
71917;BME280;59793;46.506;6.674;2023-05-13T04:42:15;96967.44;;;13.26;72.91
71917;BME280;59793;46.506;6.674;2023-05-13T04:44:40;96966.53;;;13.15;73.59
71917;BME280;59793;46.506;6.674;2023-05-13T04:47:06;96953.06;;;12.97;73.78
71917;BME280;59793;46.506;6.674;2023-05-13T04:49:31;96967.22;;;13.12;73.66
71917;BME280;59793;46.506;6.674;2023-05-13T04:51:56;96971.84;;;13.19;73.59
71917;BME280;59793;46.506;6.674;2023-05-13T04:54:22;96977.59;;;13.24;73.19
71917;BME280;59793;46.506;6.674;2023-05-13T04:56:47;96977.59;;;13.24;73.62
71917;BME280;59793;46.506;6.674;2023-05-13T04:59:12;96985.97;;;13.26;73.47
71917;BME280;59793;46.506;6.674;2023-05-13T05:01:38;96984.31;;;13.18;73.25
71917;BME280;59793;46.506;6.674;2023-05-13T05:04:04;96988.88;;;13.21;73.13
71917;BME280;59793;46.506;6.674;2023-05-13T05:06:29;96987.25;;;13.13;73.78
71917;BME280;59793;46.506;6.674;2023-05-13T05:08:55;96989.56;;;13.14;73.73
71917;BME280;59793;46.506;6.674;2023-05-13T05:11:20;96991.09;;;13.15;74.18
71917;BME280;59793;46.506;6.674;2023-05-13T05:13:47;96988.47;;;13.19;73.31
71917;BME280;59793;46.506;6.674;2023-05-13T05:16:12;96993.81;;;13.23;73.11
71917;BME280;59793;46.506;6.674;2023-05-13T05:18:37;96997.75;;;13.32;72.78
71917;BME280;59793;46.506;6.674;2023-05-13T05:21:05;96990.13;;;13.27;72.83
71917;BME280;59793;46.506;6.674;2023-05-13T05:23:30;96996.59;;;13.30;72.32
71917;BME280;59793;46.506;6.674;2023-05-13T05:25:55;97002.31;;;13.35;72.21
71917;BME280;59793;46.506;6.674;2023-05-13T05:28:21;97001.69;;;13.46;71.76
71917;BME280;59793;46.506;6.674;2023-05-13T05:30:46;97001.38;;;13.51;70.96
71917;BME280;59793;46.506;6.674;2023-05-13T05:33:11;97007.44;;;13.51;71.63
71917;BME280;59793;46.506;6.674;2023-05-13T05:35:36;97005.25;;;13.57;71.00
71917;BME280;59793;46.506;6.674;2023-05-13T05:38:03;97011.72;;;13.63;70.29
71917;BME280;59793;46.506;6.674;2023-05-13T05:40:29;97024.66;;;13.68;69.92
71917;BME280;59793;46.506;6.674;2023-05-13T05:42:54;97019.44;;;13.75;69.69
71917;BME280;59793;46.506;6.674;2023-05-13T05:45:20;97018.31;;;13.76;69.85
71917;BME280;59793;46.506;6.674;2023-05-13T05:47:45;97020.88;;;13.69;69.69
71917;BME280;59793;46.506;6.674;2023-05-13T05:50:11;97022.22;;;13.56;70.05
71917;BME280;59793;46.506;6.674;2023-05-13T05:52:37;97018.63;;;13.71;70.13
71917;BME280;59793;46.506;6.674;2023-05-13T05:55:03;97025.09;;;13.77;69.74
71917;BME280;59793;46.506;6.674;2023-05-13T05:57:28;97017.72;;;13.94;69.39
71917;BME280;59793;46.506;6.674;2023-05-13T05:59:53;97020.69;;;13.88;70.13
71917;BME280;59793;46.506;6.674;2023-05-13T06:02:18;97025.34;;;13.99;69.66
71917;BME280;59793;46.506;6.674;2023-05-13T06:04:44;97025.00;;;14.00;69.77
71917;BME280;59793;46.506;6.674;2023-05-13T06:07:09;97026.78;;;13.89;69.95
71917;BME280;59793;46.506;6.674;2023-05-13T06:09:34;97033.94;;;13.88;70.30
71917;BME280;59793;46.506;6.674;2023-05-13T06:12:00;97033.94;;;13.88;69.80
71917;BME280;59793;46.506;6.674;2023-05-13T06:14:25;97027.88;;;13.88;69.35
71917;BME280;59793;46.506;6.674;2023-05-13T06:16:50;97030.47;;;13.84;70.30
71917;BME280;59793;46.506;6.674;2023-05-13T06:19:15;97029.72;;;13.84;70.38
71917;BME280;59793;46.506;6.674;2023-05-13T06:21:41;97034.91;;;14.07;70.06
71917;BME280;59793;46.506;6.674;2023-05-13T06:24:07;97033.16;;;14.22;68.33
71917;BME280;59793;46.506;6.674;2023-05-13T06:26:32;97032.06;;;14.30;67.50
71917;BME280;59793;46.506;6.674;2023-05-13T06:28:57;97040.38;;;14.25;67.99
71917;BME280;59793;46.506;6.674;2023-05-13T06:31:23;97034.97;;;14.14;68.12
71917;BME280;59793;46.506;6.674;2023-05-13T06:33:48;97031.03;;;14.01;68.68
71917;BME280;59793;46.506;6.674;2023-05-13T06:36:13;97037.97;;;13.75;69.62
71917;BME280;59793;46.506;6.674;2023-05-13T06:38:38;97037.66;;;13.84;69.81
71917;BME280;59793;46.506;6.674;2023-05-13T06:41:04;97035.13;;;13.95;69.45
71917;BME280;59793;46.506;6.674;2023-05-13T06:43:30;97039.81;;;14.08;68.92
71917;BME280;59793;46.506;6.674;2023-05-13T06:45:55;97039.56;;;14.21;68.33
71917;BME280;59793;46.506;6.674;2023-05-13T06:48:26;97044.91;;;14.24;67.26
71917;BME280;59793;46.506;6.674;2023-05-13T06:50:51;97040.41;;;14.28;67.09
71917;BME280;59793;46.506;6.674;2023-05-13T06:53:17;97044.97;;;14.31;67.85
71917;BME280;59793;46.506;6.674;2023-05-13T06:55:42;97040.91;;;14.45;67.28
71917;BME280;59793;46.506;6.674;2023-05-13T06:58:07;97046.09;;;14.30;68.04
71917;BME280;59793;46.506;6.674;2023-05-13T07:00:36;97041.03;;;14.15;68.10
71917;BME280;59793;46.506;6.674;2023-05-13T07:03:03;97043.13;;;13.98;68.62
71917;BME280;59793;46.506;6.674;2023-05-13T07:05:29;97036.22;;;13.90;68.80
71917;BME280;59793;46.506;6.674;2023-05-13T07:07:54;97034.97;;;13.80;69.89
71917;BME280;59793;46.506;6.674;2023-05-13T07:10:19;97040.91;;;14.04;69.39
71917;BME280;59793;46.506;6.674;2023-05-13T07:12:44;97046.22;;;14.04;68.74
71917;BME280;59793;46.506;6.674;2023-05-13T07:15:10;97038.56;;;13.99;68.12
71917;BME280;59793;46.506;6.674;2023-05-13T07:17:35;97041.47;;;14.24;67.38
71917;BME280;59793;46.506;6.674;2023-05-13T07:20:00;97044.13;;;14.24;67.88
71917;BME280;59793;46.506;6.674;2023-05-13T07:22:26;97055.84;;;14.60;67.07
71917;BME280;59793;46.506;6.674;2023-05-13T07:24:51;97044.91;;;14.65;66.25
71917;BME280;59793;46.506;6.674;2023-05-13T07:27:17;97050.16;;;14.58;66.79
71917;BME280;59793;46.506;6.674;2023-05-13T07:29:42;97048.81;;;14.78;66.38
71917;BME280;59793;46.506;6.674;2023-05-13T07:32:09;97044.72;;;14.92;65.75
71917;BME280;59793;46.506;6.674;2023-05-13T07:34:34;97047.81;;;15.01;64.31
71917;BME280;59793;46.506;6.674;2023-05-13T07:37:00;97044.69;;;14.85;64.56
71917;BME280;59793;46.506;6.674;2023-05-13T07:39:25;97041.22;;;14.80;65.15
71917;BME280;59793;46.506;6.674;2023-05-13T07:41:50;97039.91;;;14.53;66.16
71917;BME280;59793;46.506;6.674;2023-05-13T07:44:15;97048.22;;;14.55;66.26
71917;BME280;59793;46.506;6.674;2023-05-13T07:46:41;97043.97;;;14.47;66.38
71917;BME280;59793;46.506;6.674;2023-05-13T07:49:06;97045.47;;;14.48;67.43
71917;BME280;59793;46.506;6.674;2023-05-13T07:51:33;97045.47;;;14.48;67.76
71917;BME280;59793;46.506;6.674;2023-05-13T07:53:59;97052.19;;;14.75;66.74
71917;BME280;59793;46.506;6.674;2023-05-13T07:56:25;97049.47;;;14.68;66.81
71917;BME280;59793;46.506;6.674;2023-05-13T07:58:52;97042.91;;;14.51;66.54
71917;BME280;59793;46.506;6.674;2023-05-13T08:01:21;97048.25;;;14.58;67.31
71917;BME280;59793;46.506;6.674;2023-05-13T08:03:46;97044.19;;;14.72;68.02
71917;BME280;59793;46.506;6.674;2023-05-13T08:06:11;97048.63;;;14.57;67.80
71917;BME280;59793;46.506;6.674;2023-05-13T08:08:38;97048.00;;;14.71;67.60
71917;BME280;59793;46.506;6.674;2023-05-13T08:11:03;97046.19;;;14.82;66.91
71917;BME280;59793;46.506;6.674;2023-05-13T08:13:29;97055.41;;;14.99;67.13
71917;BME280;59793;46.506;6.674;2023-05-13T08:15:54;97051.44;;;14.78;68.25
71917;BME280;59793;46.506;6.674;2023-05-13T08:18:19;97054.63;;;14.95;67.64
71917;BME280;59793;46.506;6.674;2023-05-13T08:20:45;97047.00;;;14.93;67.50
71917;BME280;59793;46.506;6.674;2023-05-13T08:23:10;97051.56;;;14.93;67.81
71917;BME280;59793;46.506;6.674;2023-05-13T08:25:35;97058.47;;;15.08;67.46
71917;BME280;59793;46.506;6.674;2023-05-13T08:28:01;97054.34;;;15.14;67.34
71917;BME280;59793;46.506;6.674;2023-05-13T08:30:26;97048.00;;;15.37;66.73
71917;BME280;59793;46.506;6.674;2023-05-13T08:32:51;97057.56;;;15.48;65.99
71917;BME280;59793;46.506;6.674;2023-05-13T08:35:16;97055.63;;;15.38;64.66
71917;BME280;59793;46.506;6.674;2023-05-13T08:37:42;97050.28;;;15.31;65.75
71917;BME280;59793;46.506;6.674;2023-05-13T08:40:08;97054.47;;;15.39;64.38
71917;BME280;59793;46.506;6.674;2023-05-13T08:42:35;97061.94;;;15.16;65.71
71917;BME280;59793;46.506;6.674;2023-05-13T08:45:02;97057.53;;;15.41;65.36
71917;BME280;59793;46.506;6.674;2023-05-13T08:47:49;97060.47;;;15.22;65.40
71917;BME280;59793;46.506;6.674;2023-05-13T08:50:15;97057.72;;;15.07;67.23
71917;BME280;59793;46.506;6.674;2023-05-13T08:52:40;97052.59;;;15.40;65.38
71917;BME280;59793;46.506;6.674;2023-05-13T08:57:49;97052.63;;;15.50;65.01
71917;BME280;59793;46.506;6.674;2023-05-13T09:00:14;97049.97;;;15.47;64.83
71917;BME280;59793;46.506;6.674;2023-05-13T09:02:41;97050.94;;;15.90;64.61
71917;BME280;59793;46.506;6.674;2023-05-13T09:05:06;97057.00;;;15.91;64.45
71917;BME280;59793;46.506;6.674;2023-05-13T09:07:35;97052.50;;;16.13;63.45
71917;BME280;59793;46.506;6.674;2023-05-13T09:10:01;97054.72;;;15.86;63.17
71917;BME280;59793;46.506;6.674;2023-05-13T09:15:13;97048.81;;;15.37;65.84
71917;BME280;59793;46.506;6.674;2023-05-13T09:17:39;97046.50;;;15.36;65.31
71917;BME280;59793;46.506;6.674;2023-05-13T09:20:07;97045.97;;;15.78;64.78
71917;BME280;59793;46.506;6.674;2023-05-13T09:22:33;97045.22;;;15.81;64.41
71917;BME280;59793;46.506;6.674;2023-05-13T09:24:58;97046.38;;;15.91;64.48
71917;BME280;59793;46.506;6.674;2023-05-13T09:27:34;97044.50;;;15.95;64.01
71917;BME280;59793;46.506;6.674;2023-05-13T09:30:00;97036.50;;;15.91;63.17
71917;BME280;59793;46.506;6.674;2023-05-13T09:32:26;97045.97;;;15.82;63.77
71917;BME280;59793;46.506;6.674;2023-05-13T09:34:51;97031.53;;;15.79;64.37
71917;BME280;59793;46.506;6.674;2023-05-13T09:37:17;97033.13;;;15.94;63.87
71917;BME280;59793;46.506;6.674;2023-05-13T09:39:42;97039.22;;;16.09;62.84
71917;BME280;59793;46.506;6.674;2023-05-13T09:42:14;97030.84;;;16.00;64.51
71917;BME280;59793;46.506;6.674;2023-05-13T09:44:41;97027.81;;;15.98;63.36
71917;BME280;59793;46.506;6.674;2023-05-13T09:47:09;97030.88;;;16.18;63.48
71917;BME280;59793;46.506;6.674;2023-05-13T09:49:35;97032.41;;;16.26;63.23
71917;BME280;59793;46.506;6.674;2023-05-13T09:52:01;97036.25;;;16.68;62.21
71917;BME280;59793;46.506;6.674;2023-05-13T09:54:32;97036.25;;;16.57;61.84
71917;BME280;59793;46.506;6.674;2023-05-13T09:56:58;97037.75;;;16.40;62.60
71917;BME280;59793;46.506;6.674;2023-05-13T09:59:26;97033.19;;;16.48;62.16
71917;BME280;59793;46.506;6.674;2023-05-13T10:01:51;97032.78;;;16.46;62.08
71917;BME280;59793;46.506;6.674;2023-05-13T10:04:18;97030.13;;;16.53;63.00
71917;BME280;59793;46.506;6.674;2023-05-13T10:06:43;97027.09;;;16.15;62.63
71917;BME280;59793;46.506;6.674;2023-05-13T10:09:09;97035.03;;;16.08;63.30
71917;BME280;59793;46.506;6.674;2023-05-13T10:11:35;97035.84;;;16.34;62.20
71917;BME280;59793;46.506;6.674;2023-05-13T10:14:01;97025.97;;;16.38;61.98
71917;BME280;59793;46.506;6.674;2023-05-13T10:16:29;97029.78;;;16.80;60.82
71917;BME280;59793;46.506;6.674;2023-05-13T10:18:56;97025.50;;;17.36;59.55
71917;BME280;59793;46.506;6.674;2023-05-13T10:21:22;97018.75;;;16.78;61.69
71917;BME280;59793;46.506;6.674;2023-05-13T10:23:48;97029.03;;;16.68;61.87
71917;BME280;59793;46.506;6.674;2023-05-13T10:26:16;97024.47;;;16.51;63.37
71917;BME280;59793;46.506;6.674;2023-05-13T10:28:41;97022.88;;;17.22;60.26
71917;BME280;59793;46.506;6.674;2023-05-13T10:31:07;97032.34;;;17.33;60.26
71917;BME280;59793;46.506;6.674;2023-05-13T10:33:32;97013.75;;;17.19;60.58
71917;BME280;59793;46.506;6.674;2023-05-13T10:43:26;97024.00;;;17.24;58.52
71917;BME280;59793;46.506;6.674;2023-05-13T10:45:56;97017.09;;;17.48;58.21
71917;BME280;59793;46.506;6.674;2023-05-13T10:48:22;97022.03;;;17.53;57.24
71917;BME280;59793;46.506;6.674;2023-05-13T10:53:18;97011.69;;;17.62;57.80
71917;BME280;59793;46.506;6.674;2023-05-13T10:55:44;97006.78;;;17.61;58.09
71917;BME280;59793;46.506;6.674;2023-05-13T10:58:10;97008.69;;;17.57;56.74
71917;BME280;59793;46.506;6.674;2023-05-13T11:00:36;97006.41;;;17.55;58.06
71917;BME280;59793;46.506;6.674;2023-05-13T11:03:47;97007.16;;;17.52;56.97
71917;BME280;59793;46.506;6.674;2023-05-13T11:05:59;97005.16;;;17.85;57.15
71917;BME280;59793;46.506;6.674;2023-05-13T11:08:44;97000.13;;;17.98;55.34
71917;BME280;59793;46.506;6.674;2023-05-13T11:11:45;96998.72;;;17.72;56.56
71917;BME280;59793;46.506;6.674;2023-05-13T11:14:02;97007.00;;;17.99;56.77
71917;BME280;59793;46.506;6.674;2023-05-13T11:16:28;96997.53;;;17.87;55.27
71917;BME280;59793;46.506;6.674;2023-05-13T11:18:53;96995.50;;;18.05;57.31
71917;BME280;59793;46.506;6.674;2023-05-13T11:21:31;96999.81;;;18.44;56.94
71917;BME280;59793;46.506;6.674;2023-05-13T11:24:02;96994.00;;;18.04;55.45
71917;BME280;59793;46.506;6.674;2023-05-13T11:26:50;96993.94;;;18.63;55.76
71917;BME280;59793;46.506;6.674;2023-05-13T11:29:13;96998.66;;;18.90;54.41
71917;BME280;59793;46.506;6.674;2023-05-13T11:31:43;96991.47;;;18.87;54.44
71917;BME280;59793;46.506;6.674;2023-05-13T11:34:15;96984.97;;;18.88;55.73
71917;BME280;59793;46.506;6.674;2023-05-13T11:36:43;96998.03;;;18.75;55.30
71917;BME280;59793;46.506;6.674;2023-05-13T11:39:10;96985.91;;;18.67;54.87
71917;BME280;59793;46.506;6.674;2023-05-13T11:41:36;96983.63;;;18.62;53.80
71917;BME280;59793;46.506;6.674;2023-05-13T11:44:03;96985.00;;;18.84;55.53
71917;BME280;59793;46.506;6.674;2023-05-13T11:46:29;96978.25;;;19.45;53.13
71917;BME280;59793;46.506;6.674;2023-05-13T11:48:54;96983.00;;;19.91;51.99
71917;BME280;59793;46.506;6.674;2023-05-13T11:51:19;96988.47;;;19.84;50.73
71917;BME280;59793;46.506;6.674;2023-05-13T11:53:45;96980.38;;;20.15;50.06
71917;BME280;59793;46.506;6.674;2023-05-13T11:56:10;96983.69;;;20.49;49.02
71917;BME280;59793;46.506;6.674;2023-05-13T11:58:36;96976.56;;;20.39;48.91
71917;BME280;59793;46.506;6.674;2023-05-13T12:01:02;96988.81;;;20.13;47.93
71917;BME280;59793;46.506;6.674;2023-05-13T12:03:28;96977.31;;;20.40;46.64
71917;BME280;59793;46.506;6.674;2023-05-13T12:06:00;96977.59;;;20.45;49.61
71917;BME280;59793;46.506;6.674;2023-05-13T12:08:25;96976.34;;;20.77;49.11
71917;BME280;59793;46.506;6.674;2023-05-13T12:10:52;96974.88;;;20.72;48.54
71917;BME280;59793;46.506;6.674;2023-05-13T12:13:18;96976.66;;;20.09;51.91
71917;BME280;59793;46.506;6.674;2023-05-13T12:15:44;96970.09;;;20.64;52.13
71917;BME280;59793;46.506;6.674;2023-05-13T12:18:10;96977.25;;;20.90;50.84
71917;BME280;59793;46.506;6.674;2023-05-13T12:20:36;96966.44;;;21.37;49.54
71917;BME280;59793;46.506;6.674;2023-05-13T12:23:02;96963.94;;;21.07;47.42
71917;BME280;59793;46.506;6.674;2023-05-13T12:27:57;96975.59;;;19.75;48.74
71917;BME280;59793;46.506;6.674;2023-05-13T12:30:22;96973.94;;;19.54;49.00
71917;BME280;59793;46.506;6.674;2023-05-13T12:32:48;96978.59;;;19.16;51.88
71917;BME280;59793;46.506;6.674;2023-05-13T12:35:13;96978.31;;;19.03;52.89
71917;BME280;59793;46.506;6.674;2023-05-13T12:37:39;96973.28;;;19.13;51.93
71917;BME280;59793;46.506;6.674;2023-05-13T12:40:13;96972.41;;;18.85;52.71
71917;BME280;59793;46.506;6.674;2023-05-13T12:42:43;96975.13;;;18.81;52.57
71917;BME280;59793;46.506;6.674;2023-05-13T12:45:08;96982.44;;;18.70;52.80
71917;BME280;59793;46.506;6.674;2023-05-13T12:47:47;96978.66;;;18.68;52.77
71917;BME280;59793;46.506;6.674;2023-05-13T12:50:14;96975.13;;;18.81;53.04
71917;BME280;59793;46.506;6.674;2023-05-13T12:52:39;96984.38;;;18.70;52.38
71917;BME280;59793;46.506;6.674;2023-05-13T12:55:05;96979.94;;;18.52;52.71
71917;BME280;59793;46.506;6.674;2023-05-13T12:57:30;96984.75;;;18.16;52.29
71917;BME280;59793;46.506;6.674;2023-05-13T12:59:56;96985.66;;;18.02;52.64
71917;BME280;59793;46.506;6.674;2023-05-13T13:02:21;96982.47;;;18.18;51.92
71917;BME280;59793;46.506;6.674;2023-05-13T13:04:46;96986.19;;;18.31;52.13
71917;BME280;59793;46.506;6.674;2023-05-13T13:07:11;96992.28;;;18.32;52.13
71917;BME280;59793;46.506;6.674;2023-05-13T13:09:38;96998.84;;;18.24;53.35
71917;BME280;59793;46.506;6.674;2023-05-13T13:12:03;96986.31;;;18.13;54.62
71917;BME280;59793;46.506;6.674;2023-05-13T13:14:29;96987.44;;;18.12;53.85